Salt Lake City, Utah
Traffic Map
Current Weather Conditions
Salt Lake City, Utah
Broken Clouds
Broken Clouds
11°
Feels Like: 11°
Wind Chill: 11° Ceiling: 12000
Heat Index: 11° Visibility: 10mi
Dew Point: Wind: 7mph
Humidity: 74% Direction: 170° (S)
Pressure: 29.91in Gusts: 0mph
Raw Report DataKSLC 221253Z 17006KT 10SM FEW090 BKN120 11/07 A2991 RMK AO2 SLP097 T01110067
Traffic Incident Summary
Active as of:
Severity:
Category:
InformationThere was an issue retrieving the traffic information for this location. Please try a different location or try again shortly.
Advertisements
Track Severe Weather on mobile